NFFNYBBN

Guest
Details From NFFN - Nadi Intl
To YBBN - Brisbane Intl
Flight Number -
Tags Generated
Created
Modified
Stats Distance 1,465 nm / 2,713 km
Max Altitude 0 ft / 0 m
Waypoints 3
Social Downloads 2
Likes 0
Share VATSIM

Download

Looking for another format? Having issues loading an existing format? Contact us
Advertisement - Login to hide

Notes

Generated

Route

NFFN BBNWH YBBN

ID Type Via Altitude Latitude Longitude Leg Dist Tot Dist Heading (true) Name
O NFFN APT - 0 ft / 0 m -17.75352˚ 177.43591˚ - 0 nm - -
BBNWH FIX - 0 ft / 0 m -27.39871˚ 153.15588˚ 1462 nm 1462 nm 242° / 252° -
O YBBN APT - 0 ft / 0 m -27.40786˚ 153.10379˚ 2 nm 1464 nm 259° / 259° -

Altitude Profile

Advertisement - Login to hide

Weather


0- 5 10 15 20 25 30 35+ Temperature / ° C

Clouds and Precipitation
Forecast for 2017-12-18 00:00 UTC. Updated 43 minutes ago

Ground ~20,000 ft ~40,000 ft Winds

NFFN

Details ICAO NFFN (NAN)
Name Nadi Intl
Region Fiji and Tonga
Timezone Pacific/Fiji (UTC+13.0)
Stats Elevation 59 ft / 18 m (AMSL)
Location -17.758366° 177.442147°
Runways 2
Magnetic Variation 12.400° E

METAR

NFFN 180000Z 08009KT 050V120 9999 FEW027 BKN110 29/21 Q1004 NOSIG

Decode

TAF

TAF NFFN 172306Z 1800/1824 11010KT 9999 SCT025 SCT045

Decode

Departure Runways

ID Width Length Bearing (true) Bearing (mag) Surface Threshold Offset Overrun Length
02 151 ft / 46 m 10,529 ft / 3,209 m 37.50° 25.10° Asphalt 0 ft / 0 m 0 ft / 0 m
09 151 ft / 46 m 6,989 ft / 2,130 m 104.20° 91.80° Asphalt 0 ft / 0 m 95 ft / 29 m
20 151 ft / 46 m 10,529 ft / 3,209 m 217.50° 205.10° Asphalt 0 ft / 0 m 0 ft / 0 m
27 151 ft / 46 m 6,989 ft / 2,130 m 284.20° 271.80° Asphalt 0 ft / 0 m 0 ft / 0 m

YBBN

Details ICAO YBBN (BNE)
Name Brisbane Intl
Region Australia
Timezone Australia/Brisbane (UTC+10.0)
Stats Elevation 12 ft / 4 m (AMSL)
Location -27.375714° 153.127710°
Runways 2
Magnetic Variation 10.985° E

METAR

YBBN 180000Z 06008KT 9999 FEW032 SCT340 27/18 Q1015 NOSIG

Decode

TAF

TAF TAF YBBN 172328Z 1800/1906 06012KT 9999 FEW045 FM181800 35005KT 9999 FEW025 FM182300 05012KT 9999 FEW030

Decode

Destination Runways

ID Width Length Bearing (true) Bearing (mag) Surface Threshold Offset Overrun Length
01 148 ft / 45 m 11,805 ft / 3,598 m 26.93° 15.95° Asphalt 197 ft / 60 m 0 ft / 0 m
14 98 ft / 30 m 5,787 ft / 1,764 m 145.66° 134.68° Asphalt 197 ft / 60 m 0 ft / 0 m
19 148 ft / 45 m 11,805 ft / 3,598 m 206.92° 195.94° Asphalt 0 ft / 0 m 0 ft / 0 m
32 98 ft / 30 m 5,787 ft / 1,764 m 325.66° 314.68° Asphalt 197 ft / 60 m 0 ft / 0 m

Approach Navaids

Runway Type Ident Frequency Range Bearing (true) Bearing (mag) Slope Elevation
01 Localiser IBA 109.50 MHz 18 nm / 33 km 26.70° 15.71° - 28 ft / 9 m (AMSL)
01 Glidescope IBA 109.50 MHz 10 nm / 19 km 26.92° 15.94° 3.00° 13 ft / 4 m (AMSL)
19 Localiser IBS 110.10 MHz 18 nm / 33 km 206.97° 195.98° - 49 ft / 15 m (AMSL)
19 Glidescope IBS 110.10 MHz 10 nm / 19 km 206.92° 195.94° 3.00° 13 ft / 4 m (AMSL)

Popular Alternatives